KABY/ABY METAR and TAF weather

Enter ICAO airport designator
Station Type Date Time Source
KABY METAR 2020/01/26 18:53 UTC NOAA

KABY 261853Z 30006KT 10SM OVC095 14/01 A3011 RMK AO2 SLP196 T01390011


Station Type Date Time Source
KABY Decoded METAR 2020/01/26 18:53 UTC NOAA

ALBANY SOUTHWEST GEORGIA, GA, United States (KABY) 31-32N 084-12W 58M
Jan 26, 2020 - 01:53 PM EST / 2020.01.26 1853 UTC
Wind: from the WNW (300 degrees) at 7 MPH (6 KT):0
Visibility: 10 mile(s):0
Sky conditions: overcast
Temperature: 57.0 F (13.9 C)
Dew Point: 34.0 F (1.1 C)
Relative Humidity: 41%
Pressure (altimeter): 30.11 in. Hg (1019 hPa)
ob: KABY 261853Z 30006KT 10SM OVC095 14/01 A3011 RMK AO2 SLP196 T01390011
cycle: 19

Station Type Date Time Source
KABY TAF 2020/01/26 18:36 UTC NOAA

TAF KABY 261733Z 2618/2718 VRB03KT P6SM BKN100
TEMPO 2702/2706 4SM -RA OVC025
FM270600 VRB03KT P6SM -RA OVC040
FM270900 00000KT P6SM -RA OVC027 PROB30 2715/2718 4SM RA OVC008

Example: see airport list